createdAt,value
2017-10-27T00:00:48.810Z,9.98
2017-10-27T00:01:49.140Z,9.93
2017-10-27T00:02:48.804Z,10.02
2017-10-27T00:03:48.781Z,10
2017-10-27T00:04:49.107Z,9.93
2017-10-27T00:05:49.154Z,10.03
2017-10-27T00:06:48.791Z,10.05
2017-10-27T00:07:48.739Z,10.1
2017-10-27T00:08:49.411Z,10.03
2017-10-27T00:09:49.062Z,10.07
2017-10-27T00:10:49.068Z,10.02
2017-10-27T00:11:49.075Z,10.03
2017-10-27T00:12:48.703Z,10.03
2017-10-27T00:13:49.022Z,10.14
2017-10-27T00:14:49.016Z,10.15
2017-10-27T00:15:49.016Z,10.17
2017-10-27T00:16:48.661Z,10.26
2017-10-27T00:17:48.992Z,10.31
2017-10-27T00:18:48.985Z,10.14
2017-10-27T00:19:48.635Z,10.29
2017-10-27T00:20:48.609Z,10.33
2017-10-27T00:21:48.939Z,10.31
2017-10-27T00:22:48.932Z,10.28
2017-10-27T00:23:48.589Z,10.31
2017-10-27T00:24:48.572Z,10.35
2017-10-27T00:25:48.912Z,10.35
2017-10-27T00:26:48.892Z,10.38
2017-10-27T00:27:48.881Z,10.41
2017-10-27T00:28:49.229Z,10.35
2017-10-27T00:29:48.521Z,10.38
2017-10-27T00:30:49.195Z,10.38
2017-10-27T00:31:48.500Z,10.42
2017-10-27T00:32:48.832Z,10.44
2017-10-27T00:33:48.824Z,10.42
2017-10-27T00:34:48.814Z,10.51
2017-10-27T00:35:48.462Z,10.46
2017-10-27T00:36:48.461Z,10.44
2017-10-27T00:37:48.446Z,10.47
2017-10-27T00:38:48.775Z,10.47
2017-10-27T00:39:48.768Z,10.47
2017-10-27T00:40:48.414Z,10.52
2017-10-27T00:41:48.404Z,10.51
2017-10-27T00:42:48.739Z,10.58
2017-10-27T00:43:48.387Z,10.55
2017-10-27T00:44:48.712Z,10.54
2017-10-27T00:45:48.364Z,10.57
2017-10-27T00:46:48.353Z,10.49
2017-10-27T00:47:48.684Z,10.54
2017-10-27T00:48:48.337Z,10.51
2017-10-27T00:49:48.337Z,10.52
2017-10-27T00:50:48.995Z,10.52
2017-10-27T00:51:49.009Z,10.44
2017-10-27T00:52:48.636Z,10.54
2017-10-27T00:53:48.973Z,10.54
2017-10-27T00:54:48.618Z,10.58
2017-10-27T00:55:48.268Z,10.54
2017-10-27T00:56:48.615Z,10.55
2017-10-27T00:57:48.256Z,10.59
2017-10-27T00:58:48.944Z,10.54
2017-10-27T00:59:48.229Z,10.55
2017-10-27T01:00:48.580Z,10.54
2017-10-27T01:01:48.548Z,10.46
2017-10-27T01:02:48.540Z,10.47
2017-10-27T01:03:48.190Z,10.52
2017-10-27T01:04:48.521Z,10.52
2017-10-27T01:05:48.512Z,10.52
2017-10-27T01:06:48.844Z,10.51
2017-10-27T01:07:48.154Z,10.51
2017-10-27T01:08:48.483Z,10.52
2017-10-27T01:09:48.489Z,10.52
2017-10-27T01:10:48.462Z,10.51
2017-10-27T01:11:48.456Z,10.54
2017-10-27T01:12:48.104Z,10.54
2017-10-27T01:13:48.452Z,10.42
2017-10-27T01:14:48.083Z,10.52
2017-10-27T01:15:48.428Z,10.52
2017-10-27T01:16:48.405Z,10.51
2017-10-27T01:17:48.395Z,10.49
2017-10-27T01:18:48.046Z,10.49
2017-10-27T01:19:48.077Z,10.54
2017-10-27T01:20:48.707Z,10.52
2017-10-27T01:21:48.361Z,10.49
2017-10-27T01:22:48.008Z,10.47
2017-10-27T01:23:48.675Z,10.57
2017-10-27T01:24:48.546Z,10.46
2017-10-27T01:25:48.317Z,10.49
2017-10-27T01:26:48.309Z,10.47
2017-10-27T01:27:48.661Z,10.52
2017-10-27T01:28:48.308Z,10.52
2017-10-27T01:29:48.302Z,10.57
2017-10-27T01:30:48.289Z,10.47
2017-10-27T01:31:48.261Z,10.58
2017-10-27T01:32:47.909Z,10.57
2017-10-27T01:33:47.898Z,10.51
2017-10-27T01:34:48.233Z,10.52
2017-10-27T01:35:48.237Z,10.51
2017-10-27T01:36:47.872Z,10.54
2017-10-27T01:37:48.201Z,10.55
2017-10-27T01:38:48.225Z,10.55
2017-10-27T01:39:48.189Z,10.57
2017-10-27T01:40:48.518Z,10.59
2017-10-27T01:41:47.833Z,10.58
2017-10-27T01:42:47.812Z,10.59
2017-10-27T01:43:47.819Z,10.58
2017-10-27T01:44:47.793Z,10.59
2017-10-27T01:45:48.137Z,10.61
2017-10-27T01:46:48.472Z,10.55
2017-10-27T01:47:47.764Z,10.61
2017-10-27T01:48:47.757Z,10.58
2017-10-27T01:49:48.429Z,10.58
2017-10-27T01:50:48.076Z,10.55
2017-10-27T01:51:47.727Z,10.57
2017-10-27T01:52:48.061Z,10.63
2017-10-27T01:53:48.050Z,10.55
2017-10-27T01:54:47.707Z,10.58
2017-10-27T01:55:48.371Z,10.52
2017-10-27T01:56:48.018Z,10.52
2017-10-27T01:57:48.009Z,10.55
2017-10-27T01:58:48.001Z,10.49
2017-10-27T01:59:47.666Z,10.47
2017-10-27T02:00:47.639Z,10.47
2017-10-27T02:01:47.969Z,10.49
2017-10-27T02:02:47.630Z,10.41
2017-10-27T02:03:47.970Z,10.41
2017-10-27T02:04:47.600Z,10.44
2017-10-27T02:05:47.592Z,10.35
2017-10-27T02:06:47.923Z,10.36
2017-10-27T02:07:47.573Z,10.33
2017-10-27T02:08:47.565Z,10.38
2017-10-27T02:09:47.567Z,10.32
2017-10-27T02:10:47.541Z,10.42
2017-10-27T02:11:47.873Z,10.29
2017-10-27T02:12:47.889Z,10.31
2017-10-27T02:13:47.520Z,10.36
2017-10-27T02:14:47.503Z,10.25
2017-10-27T02:15:47.492Z,10.32
2017-10-27T02:16:47.484Z,10.38
2017-10-27T02:17:47.472Z,10.28
2017-10-27T02:18:47.801Z,10.26
2017-10-27T02:19:47.454Z,10.26
2017-10-27T02:20:47.444Z,10.2
2017-10-27T02:21:48.140Z,10.26
2017-10-27T02:22:47.440Z,10.2
2017-10-27T02:23:47.411Z,10.26
2017-10-27T02:24:48.097Z,10.33
2017-10-27T02:25:47.419Z,10.29
2017-10-27T02:26:47.726Z,10.03
2017-10-27T02:27:47.371Z,10.08
2017-10-27T02:28:47.992Z,9.95
2017-10-27T02:29:47.349Z,9.77
2017-10-27T02:30:47.678Z,9.67
2017-10-27T02:31:48.034Z,9.59
2017-10-27T02:32:47.321Z,9.48
2017-10-27T02:33:47.681Z,9.48
2017-10-27T02:34:47.639Z,9.42
2017-10-27T02:35:47.301Z,9.3
2017-10-27T02:36:47.624Z,9.38
2017-10-27T02:37:47.618Z,9.29
2017-10-27T02:38:47.604Z,9.17
2017-10-27T02:39:47.597Z,9.19
2017-10-27T02:40:47.597Z,9.12
2017-10-27T02:41:47.563Z,9.03
2017-10-27T02:42:47.224Z,9
2017-10-27T02:43:47.213Z,8.97
2017-10-27T02:44:47.196Z,9.03
2017-10-27T02:45:47.181Z,9.01
2017-10-27T02:46:47.522Z,8.92
2017-10-27T02:47:47.844Z,8.89
2017-10-27T02:48:47.836Z,8.83
2017-10-27T02:49:47.826Z,8.82
2017-10-27T02:50:47.810Z,8.89
2017-10-27T02:51:47.456Z,8.86
2017-10-27T02:52:47.111Z,8.77
2017-10-27T02:53:47.113Z,8.74
2017-10-27T02:54:47.420Z,8.71
2017-10-27T02:55:47.430Z,8.72
2017-10-27T02:56:47.061Z,8.74
2017-10-27T02:57:47.391Z,8.69
2017-10-27T02:58:47.381Z,8.74
2017-10-27T02:59:47.367Z,8.77
2017-10-27T03:00:47.017Z,8.74
2017-10-27T03:01:47.343Z,8.68
2017-10-27T03:02:47.676Z,8.74
2017-10-27T03:03:47.320Z,8.71
2017-10-27T03:04:47.314Z,8.67
2017-10-27T03:05:47.297Z,8.65
2017-10-27T03:06:46.948Z,8.72
2017-10-27T03:07:46.966Z,8.65
2017-10-27T03:08:47.265Z,8.64
2017-10-27T03:09:46.933Z,8.64
2017-10-27T03:10:46.903Z,8.62
2017-10-27T03:11:47.248Z,8.71
2017-10-27T03:12:47.228Z,8.76
2017-10-27T03:13:46.890Z,8.72
2017-10-27T03:14:46.858Z,8.67
2017-10-27T03:15:46.848Z,8.74
2017-10-27T03:16:47.203Z,8.74
2017-10-27T03:17:46.828Z,8.71
2017-10-27T03:18:47.158Z,8.72
2017-10-27T03:19:46.817Z,8.72
2017-10-27T03:20:47.147Z,8.77
2017-10-27T03:21:47.137Z,8.77
2017-10-27T03:22:46.769Z,8.77
2017-10-27T03:23:46.758Z,8.74
2017-10-27T03:24:47.097Z,8.76
2017-10-27T03:25:46.736Z,8.76
2017-10-27T03:26:46.724Z,8.72
2017-10-27T03:27:47.071Z,8.74
2017-10-27T03:28:47.384Z,8.79
2017-10-27T03:29:46.690Z,8.76
2017-10-27T03:30:46.681Z,8.68
2017-10-27T03:31:46.668Z,8.71
2017-10-27T03:32:46.996Z,8.72
2017-10-27T03:33:46.666Z,8.71
2017-10-27T03:34:46.633Z,8.72
2017-10-27T03:35:46.970Z,8.72
2017-10-27T03:36:46.952Z,8.72
2017-10-27T03:37:46.601Z,8.76
2017-10-27T03:38:46.589Z,8.72
2017-10-27T03:39:46.938Z,8.72
2017-10-27T03:40:46.908Z,8.74
2017-10-27T03:41:46.554Z,8.74
2017-10-27T03:42:46.546Z,8.71
2017-10-27T03:43:47.213Z,8.71
2017-10-27T03:44:46.862Z,8.77
2017-10-27T03:45:46.853Z,8.71
2017-10-27T03:46:47.196Z,8.77
2017-10-27T03:47:47.175Z,8.72
2017-10-27T03:48:46.820Z,8.72
2017-10-27T03:49:46.465Z,8.76
2017-10-27T03:50:46.806Z,8.72
2017-10-27T03:51:46.782Z,8.71
2017-10-27T03:52:46.432Z,8.8
2017-10-27T03:53:46.421Z,8.76
2017-10-27T03:54:46.412Z,8.8
2017-10-27T03:55:46.740Z,8.79
2017-10-27T03:56:46.386Z,8.74
2017-10-27T03:57:46.375Z,8.72
2017-10-27T03:58:46.709Z,8.77
2017-10-27T03:59:46.361Z,8.8
2017-10-27T04:00:46.343Z,8.86
2017-10-27T04:01:46.680Z,8.85
2017-10-27T04:02:46.321Z,8.77
2017-10-27T04:03:46.332Z,8.8
2017-10-27T04:04:46.298Z,8.83
2017-10-27T04:05:46.968Z,8.83
2017-10-27T04:06:46.279Z,8.86
2017-10-27T04:07:46.946Z,8.89
2017-10-27T04:08:46.592Z,8.85
2017-10-27T04:09:46.582Z,8.8
2017-10-27T04:10:46.249Z,8.87
2017-10-27T04:11:46.219Z,8.85
2017-10-27T04:12:46.555Z,8.8
2017-10-27T04:13:46.883Z,8.87
2017-10-27T04:14:46.186Z,8.79
2017-10-27T04:15:46.174Z,8.74
2017-10-27T04:16:46.501Z,8.8
2017-10-27T04:17:46.154Z,8.71
2017-10-27T04:18:46.141Z,8.69
2017-10-27T04:19:46.469Z,8.71
2017-10-27T04:20:46.808Z,8.67
2017-10-27T04:21:46.111Z,8.74
2017-10-27T04:22:46.097Z,8.74
2017-10-27T04:23:46.088Z,8.68
2017-10-27T04:24:46.075Z,8.64
2017-10-27T04:25:46.063Z,8.71
2017-10-27T04:26:46.416Z,8.61
2017-10-27T04:27:46.388Z,8.67
2017-10-27T04:28:46.369Z,8.61
2017-10-27T04:29:46.699Z,8.69
2017-10-27T04:30:46.349Z,8.65
2017-10-27T04:31:46.360Z,8.61
2017-10-27T04:32:46.345Z,8.69
2017-10-27T04:33:45.979Z,8.62
2017-10-27T04:34:46.164Z,8.6
2017-10-27T04:35:46.637Z,8.67
2017-10-27T04:36:45.938Z,8.69
2017-10-27T04:37:46.606Z,8.62
2017-10-27T04:38:45.917Z,8.6
2017-10-27T04:39:45.912Z,8.6
2017-10-27T04:40:46.236Z,8.47
2017-10-27T04:41:46.222Z,8.61
2017-10-27T04:42:45.871Z,8.6
2017-10-27T04:43:46.226Z,8.53
2017-10-27T04:44:46.555Z,8.53
2017-10-27T04:45:45.837Z,8.52
2017-10-27T04:46:46.168Z,8.54
2017-10-27T04:47:45.827Z,8.44
2017-10-27T04:48:45.819Z,8.46
2017-10-27T04:49:45.791Z,8.47
2017-10-27T04:50:46.141Z,8.43
2017-10-27T04:51:45.767Z,8.46
2017-10-27T04:52:46.096Z,8.5
2017-10-27T04:53:46.088Z,8.35
2017-10-27T04:54:46.071Z,8.44
2017-10-27T04:55:46.060Z,8.39
2017-10-27T04:56:46.074Z,8.36
2017-10-27T04:57:46.041Z,8.42
2017-10-27T04:58:45.692Z,8.39
2017-10-27T04:59:46.034Z,8.42
2017-10-27T05:00:46.007Z,8.4
2017-10-27T05:01:45.995Z,8.42
2017-10-27T05:02:45.641Z,8.4
2017-10-27T05:03:45.986Z,8.39
2017-10-27T05:04:45.959Z,8.31
2017-10-27T05:05:45.953Z,8.36
2017-10-27T05:06:45.934Z,8.29
2017-10-27T05:07:45.926Z,8.25
2017-10-27T05:08:45.574Z,8.31
2017-10-27T05:09:45.938Z,8.31
2017-10-27T05:10:45.898Z,8.29
2017-10-27T05:11:45.538Z,8.22
2017-10-27T05:12:45.526Z,8.21
2017-10-27T05:13:46.193Z,8.26
2017-10-27T05:14:45.511Z,8.34
2017-10-27T05:15:45.489Z,8.29
2017-10-27T05:16:45.476Z,8.17
2017-10-27T05:17:45.485Z,8.24
2017-10-27T05:18:45.794Z,8.31
2017-10-27T05:19:45.463Z,8.25
2017-10-27T05:20:45.772Z,8.14
2017-10-27T05:21:45.770Z,8.22
2017-10-27T05:22:45.746Z,8.21
2017-10-27T05:23:45.739Z,8.19
2017-10-27T05:24:45.725Z,8.22
2017-10-27T05:25:45.715Z,8.21
2017-10-27T05:26:46.055Z,8.19
2017-10-27T05:27:45.700Z,8.14
2017-10-27T05:28:45.339Z,8.17
2017-10-27T05:29:46.020Z,8.25
2017-10-27T05:30:45.658Z,8.14
2017-10-27T05:31:45.303Z,8.1
2017-10-27T05:32:45.292Z,8.13
2017-10-27T05:33:45.622Z,8.17
2017-10-27T05:34:45.269Z,8.21
2017-10-27T05:35:45.597Z,8.17
2017-10-27T05:36:45.244Z,8.22
2017-10-27T05:37:45.241Z,8.06
2017-10-27T05:38:45.219Z,8.16
2017-10-27T05:39:45.211Z,8.17
2017-10-27T05:40:45.195Z,8.14
2017-10-27T05:41:45.532Z,8.21
2017-10-27T05:42:45.174Z,8.19
2017-10-27T05:43:45.502Z,8.16
2017-10-27T05:44:45.498Z,8.1
2017-10-27T05:45:45.143Z,8.22
2017-10-27T05:46:45.150Z,8.21
2017-10-27T05:47:45.474Z,8.19
2017-10-27T05:48:45.105Z,8.28
2017-10-27T05:49:45.772Z,8.21
2017-10-27T05:50:45.764Z,8.21
2017-10-27T05:51:45.751Z,8.19
2017-10-27T05:52:45.055Z,8.19
2017-10-27T05:53:45.045Z,8.25
2017-10-27T05:54:45.382Z,8.19
2017-10-27T05:55:45.360Z,8.26
2017-10-27T05:56:45.032Z,8.32
2017-10-27T05:57:45.687Z,8.32
2017-10-27T05:58:45.335Z,8.24
2017-10-27T05:59:44.993Z,8.24
2017-10-27T06:00:44.963Z,8.28
2017-10-27T06:01:45.291Z,8.26
2017-10-27T06:02:45.282Z,8.25
2017-10-27T06:03:45.308Z,8.31
2017-10-27T06:04:44.918Z,8.31
2017-10-27T06:05:45.606Z,8.32
2017-10-27T06:06:45.233Z,8.19
2017-10-27T06:07:44.881Z,8.32
2017-10-27T06:08:44.870Z,8.28
2017-10-27T06:09:45.198Z,8.32
2017-10-27T06:10:44.847Z,8.25
2017-10-27T06:11:45.174Z,8.28
2017-10-27T06:12:44.823Z,8.31
2017-10-27T06:13:45.152Z,8.21
2017-10-27T06:14:44.817Z,8.26
2017-10-27T06:15:44.798Z,8.28
2017-10-27T06:16:45.121Z,8.29
2017-10-27T06:17:44.766Z,8.39
2017-10-27T06:18:44.757Z,8.39
2017-10-27T06:19:44.745Z,8.35
2017-10-27T06:20:44.732Z,8.35
2017-10-27T06:21:45.400Z,8.32
2017-10-27T06:22:44.709Z,8.31
2017-10-27T06:23:45.239Z,8.22
2017-10-27T06:24:45.025Z,8.31
2017-10-27T06:25:45.022Z,8.34
2017-10-27T06:26:44.682Z,8.28
2017-10-27T06:27:44.988Z,8.39
2017-10-27T06:28:44.639Z,8.4
2017-10-27T06:29:44.626Z,8.34
2017-10-27T06:30:44.633Z,8.29
2017-10-27T06:31:44.955Z,8.28
2017-10-27T06:32:44.937Z,8.31
2017-10-27T06:33:44.919Z,8.35
2017-10-27T06:34:44.768Z,8.4
2017-10-27T06:35:45.241Z,8.34
2017-10-27T06:36:44.890Z,8.28
2017-10-27T06:37:44.536Z,8.39
2017-10-27T06:38:45.215Z,8.34
2017-10-27T06:39:44.512Z,8.36
2017-10-27T06:40:44.852Z,8.39
2017-10-27T06:41:44.488Z,8.36
2017-10-27T06:42:44.476Z,8.42
2017-10-27T06:43:45.156Z,8.43
2017-10-27T06:44:44.796Z,8.42
2017-10-27T06:45:44.444Z,8.43
2017-10-27T06:46:44.772Z,8.44
2017-10-27T06:47:44.419Z,8.47
2017-10-27T06:48:44.748Z,8.46
2017-10-27T06:49:44.743Z,8.46
2017-10-27T06:50:45.066Z,8.49
2017-10-27T06:51:44.373Z,8.52
2017-10-27T06:52:44.701Z,8.52
2017-10-27T06:53:44.687Z,8.52
2017-10-27T06:54:44.680Z,8.44
2017-10-27T06:55:44.690Z,8.4
2017-10-27T06:56:44.656Z,8.43
2017-10-27T06:57:45.000Z,8.42
2017-10-27T06:58:44.637Z,8.44
2017-10-27T06:59:44.621Z,8.46
2017-10-27T07:00:44.271Z,8.43
2017-10-27T07:01:44.598Z,8.39
2017-10-27T07:02:44.587Z,8.34
2017-10-27T07:03:44.936Z,8.34
2017-10-27T07:04:44.569Z,8.39
2017-10-27T07:05:44.595Z,8.29
2017-10-27T07:06:44.570Z,8.29
2017-10-27T07:07:44.529Z,8.35
2017-10-27T07:08:44.531Z,8.28
2017-10-27T07:09:44.225Z,8.36
2017-10-27T07:10:44.165Z,8.36
2017-10-27T07:11:44.677Z,8.34
2017-10-27T07:12:44.129Z,8.36
2017-10-27T07:13:44.478Z,8.29
2017-10-27T07:14:44.447Z,8.29
2017-10-27T07:15:44.437Z,8.28
2017-10-27T07:16:44.425Z,8.36
2017-10-27T07:17:44.075Z,8.36
2017-10-27T07:18:44.425Z,8.35
2017-10-27T07:19:44.048Z,8.29
2017-10-27T07:20:44.388Z,8.34
2017-10-27T07:21:44.407Z,8.24
2017-10-27T07:22:44.361Z,8.28
2017-10-27T07:23:44.009Z,8.34
2017-10-27T07:24:44.353Z,8.39
2017-10-27T07:25:44.660Z,8.35
2017-10-27T07:26:44.308Z,8.32
2017-10-27T07:27:44.297Z,8.36
2017-10-27T07:28:44.283Z,8.4
2017-10-27T07:29:44.274Z,8.28
2017-10-27T07:30:44.263Z,8.28
2017-10-27T07:31:44.275Z,8.34
2017-10-27T07:32:43.902Z,8.35
2017-10-27T07:33:44.580Z,8.36
2017-10-27T07:34:44.218Z,8.36
2017-10-27T07:35:44.233Z,8.34
2017-10-27T07:36:44.200Z,8.34
2017-10-27T07:37:44.182Z,8.35
2017-10-27T07:38:43.831Z,8.42
2017-10-27T07:39:43.828Z,8.36
2017-10-27T07:40:44.162Z,8.43
2017-10-27T07:41:43.796Z,8.31
2017-10-27T07:42:44.006Z,8.29
2017-10-27T07:43:44.451Z,8.42
2017-10-27T07:44:43.839Z,8.44
2017-10-27T07:45:44.127Z,8.49
2017-10-27T07:46:44.271Z,8.49
2017-10-27T07:47:43.725Z,8.46
2017-10-27T07:48:44.105Z,8.49
2017-10-27T07:49:44.387Z,8.4
2017-10-27T07:50:43.692Z,8.44
2017-10-27T07:51:44.019Z,8.39
2017-10-27T07:52:43.698Z,8.36
2017-10-27T07:53:43.658Z,8.29
2017-10-27T07:54:44.338Z,8.28
2017-10-27T07:55:43.633Z,8.28
2017-10-27T07:56:43.679Z,8.21
2017-10-27T07:57:44.288Z,8.31
2017-10-27T07:58:43.599Z,8.19
2017-10-27T07:59:44.296Z,8.19
2017-10-27T08:00:44.255Z,8.21
2017-10-27T08:01:44.271Z,8.24
2017-10-27T08:02:43.552Z,8.17
2017-10-27T08:03:43.890Z,8.25
2017-10-27T08:04:43.890Z,8.17
2017-10-27T08:05:43.857Z,8.22
2017-10-27T08:06:43.844Z,8.28
2017-10-27T08:07:43.834Z,8.32
2017-10-27T08:08:43.480Z,8.28
2017-10-27T08:09:43.842Z,8.31
2017-10-27T08:10:43.799Z,8.28
2017-10-27T08:11:43.795Z,8.36
2017-10-27T08:12:43.773Z,8.44
2017-10-27T08:13:43.438Z,8.43
2017-10-27T08:14:43.750Z,8.44
2017-10-27T08:15:43.742Z,8.49
2017-10-27T08:16:43.748Z,8.52
2017-10-27T08:17:43.408Z,8.57
2017-10-27T08:18:44.046Z,8.47
2017-10-27T08:19:44.047Z,8.58
2017-10-27T08:20:43.342Z,8.5
2017-10-27T08:21:43.330Z,8.6
2017-10-27T08:22:43.669Z,8.6
2017-10-27T08:23:43.654Z,8.64
2017-10-27T08:24:43.637Z,8.47
2017-10-27T08:25:43.285Z,8.61
2017-10-27T08:26:43.614Z,8.69
2017-10-27T08:27:43.266Z,8.67
2017-10-27T08:28:43.273Z,8.64
2017-10-27T08:29:43.242Z,8.65
2017-10-27T08:30:43.589Z,8.79
2017-10-27T08:31:43.218Z,8.76
2017-10-27T08:32:43.211Z,8.74
2017-10-27T08:33:43.203Z,8.74
2017-10-27T08:34:43.519Z,8.72
2017-10-27T08:35:43.177Z,8.76
2017-10-27T08:36:43.841Z,8.86
2017-10-27T08:37:43.837Z,8.76
2017-10-27T08:38:43.476Z,8.86
2017-10-27T08:39:43.136Z,8.74
2017-10-27T08:40:43.123Z,8.72
2017-10-27T08:41:43.457Z,8.71
2017-10-27T08:42:43.441Z,8.61
2017-10-27T08:43:43.418Z,8.68
2017-10-27T08:44:43.067Z,8.62
2017-10-27T08:45:43.736Z,8.57
2017-10-27T08:46:43.067Z,8.5
2017-10-27T08:47:43.035Z,8.46
2017-10-27T08:48:43.366Z,8.47
2017-10-27T08:49:43.352Z,8.49
2017-10-27T08:50:43.695Z,8.42
2017-10-27T08:51:43.327Z,8.32
2017-10-27T08:52:43.314Z,8.42
2017-10-27T08:53:43.309Z,8.34
2017-10-27T08:54:42.953Z,8.46
2017-10-27T08:55:42.958Z,8.39
2017-10-27T08:56:42.936Z,8.43
2017-10-27T08:57:43.257Z,8.47
2017-10-27T08:58:43.588Z,8.6
2017-10-27T08:59:42.895Z,8.62
2017-10-27T09:00:42.887Z,8.76
2017-10-27T09:01:43.232Z,8.94
2017-10-27T09:02:42.866Z,9.03
2017-10-27T09:03:42.873Z,9
2017-10-27T09:04:42.836Z,9
2017-10-27T09:05:43.524Z,9.03
2017-10-27T09:06:42.820Z,9.05
2017-10-27T09:07:43.146Z,9.03
2017-10-27T09:08:42.805Z,8.97
2017-10-27T09:09:43.127Z,8.95
2017-10-27T09:10:43.109Z,9
2017-10-27T09:11:43.100Z,8.94
2017-10-27T09:12:43.432Z,8.94
2017-10-27T09:13:42.740Z,8.95
2017-10-27T09:14:43.067Z,8.9
2017-10-27T09:15:42.716Z,8.94
2017-10-27T09:16:42.703Z,8.95
2017-10-27T09:17:42.692Z,8.98
2017-10-27T09:18:42.680Z,8.97
2017-10-27T09:19:42.669Z,8.98
2017-10-27T09:20:43.001Z,8.9
2017-10-27T09:21:42.988Z,8.97
2017-10-27T09:22:42.981Z,8.79
2017-10-27T09:23:42.643Z,8.82
2017-10-27T09:24:42.957Z,8.94
2017-10-27T09:25:42.942Z,8.85
2017-10-27T09:26:42.591Z,8.85
2017-10-27T09:27:42.597Z,8.85
2017-10-27T09:28:42.910Z,8.8
2017-10-27T09:29:42.559Z,8.82
2017-10-27T09:30:42.893Z,8.83
2017-10-27T09:31:42.895Z,8.9
2017-10-27T09:32:43.230Z,8.87
2017-10-27T09:33:42.871Z,8.79
2017-10-27T09:34:42.843Z,8.77
2017-10-27T09:35:42.829Z,8.71
2017-10-27T09:36:42.491Z,8.74
2017-10-27T09:37:42.807Z,8.64
2017-10-27T09:38:43.138Z,8.49
2017-10-27T09:39:43.119Z,8.31
2017-10-27T09:40:42.779Z,8.09
2017-10-27T09:41:42.419Z,8.07
2017-10-27T09:42:43.088Z,7.98
2017-10-27T09:43:42.733Z,7.91
2017-10-27T09:44:42.722Z,7.82
2017-10-27T09:45:42.723Z,7.8
2017-10-27T09:46:42.359Z,7.95
2017-10-27T09:47:42.688Z,7.96
2017-10-27T09:48:42.698Z,8.1
2017-10-27T09:49:43.018Z,8.03
2017-10-27T09:50:42.326Z,8.11
2017-10-27T09:51:42.301Z,8.09
2017-10-27T09:52:42.289Z,8.22
2017-10-27T09:53:42.616Z,8.09
2017-10-27T09:54:42.263Z,8.14
2017-10-27T09:55:42.260Z,8.17
2017-10-27T09:56:42.241Z,8.22
2017-10-27T09:57:42.586Z,8.16
2017-10-27T09:58:42.561Z,8.22
2017-10-27T09:59:42.545Z,8.19
2017-10-27T10:00:42.534Z,8.25
2017-10-27T10:01:42.539Z,8.28
2017-10-27T10:02:42.511Z,8.17
2017-10-27T10:03:42.160Z,8.22
2017-10-27T10:04:42.503Z,8.28
2017-10-27T10:05:42.133Z,8.49
2017-10-27T10:06:42.123Z,8.67
2017-10-27T10:07:42.458Z,8.98
2017-10-27T10:08:42.099Z,9
2017-10-27T10:09:42.091Z,9.03
2017-10-27T10:10:42.768Z,9.05
2017-10-27T10:11:42.067Z,9.03
2017-10-27T10:12:42.734Z,9.11
2017-10-27T10:13:42.404Z,9.2
2017-10-27T10:14:42.371Z,9.3
2017-10-27T10:15:42.388Z,9.34
2017-10-27T10:16:42.007Z,9.37
2017-10-27T10:17:41.998Z,9.48
2017-10-27T10:18:42.391Z,9.45
2017-10-27T10:19:42.314Z,9.6
2017-10-27T10:20:41.963Z,9.63
2017-10-27T10:21:42.321Z,9.66
2017-10-27T10:22:42.285Z,9.75
2017-10-27T10:23:42.280Z,9.74
2017-10-27T10:24:42.265Z,9.74
2017-10-27T10:25:41.916Z,9.64
2017-10-27T10:26:42.245Z,9.67
2017-10-27T10:27:41.895Z,9.48
2017-10-27T10:28:42.229Z,9.52
2017-10-27T10:29:41.874Z,9.5
2017-10-27T10:30:42.206Z,9.48
2017-10-27T10:31:42.214Z,9.44
2017-10-27T10:32:41.842Z,9.5
2017-10-27T10:33:42.200Z,9.44
2017-10-27T10:34:42.162Z,9.48
2017-10-27T10:35:42.167Z,9.52
2017-10-27T10:36:41.805Z,9.55
2017-10-27T10:37:42.130Z,9.45
2017-10-27T10:38:41.780Z,9.48
2017-10-27T10:39:42.131Z,9.48
2017-10-27T10:40:42.101Z,9.45
2017-10-27T10:41:42.118Z,9.39
2017-10-27T10:42:41.762Z,9.3
2017-10-27T10:43:42.068Z,9.34
2017-10-27T10:44:42.067Z,9.26
2017-10-27T10:45:41.703Z,9.19
2017-10-27T10:46:42.034Z,9.3
2017-10-27T10:47:42.027Z,9.32
2017-10-27T10:48:42.019Z,9.3
2017-10-27T10:49:42.020Z,9.42
2017-10-27T10:50:41.988Z,9.47
2017-10-27T10:51:41.640Z,9.52
2017-10-27T10:52:42.309Z,9.57
2017-10-27T10:53:41.633Z,9.57
2017-10-27T10:54:41.950Z,9.71
2017-10-27T10:55:41.950Z,9.64
2017-10-27T10:56:41.586Z,9.56
2017-10-27T10:57:41.580Z,9.6
2017-10-27T10:58:41.567Z,9.48
2017-10-27T10:59:41.555Z,9.42
2017-10-27T11:00:41.546Z,9.44
2017-10-27T11:01:41.536Z,9.35
2017-10-27T11:02:41.865Z,9.37
2017-10-27T11:03:41.514Z,9.17
2017-10-27T11:04:41.844Z,9.2
2017-10-27T11:05:41.496Z,9.24
2017-10-27T11:06:42.195Z,9.24
2017-10-27T11:07:41.813Z,9.29
2017-10-27T11:08:41.481Z,9.32
2017-10-27T11:09:41.452Z,9.38
2017-10-27T11:10:41.780Z,9.35
2017-10-27T11:11:42.112Z,9.39
2017-10-27T11:12:42.104Z,9.5
2017-10-27T11:13:41.749Z,9.44
2017-10-27T11:14:41.406Z,9.47
2017-10-27T11:15:41.386Z,9.5
2017-10-27T11:16:41.375Z,9.47
2017-10-27T11:17:41.368Z,9.53
2017-10-27T11:18:41.739Z,9.52
2017-10-27T11:19:41.700Z,9.53
2017-10-27T11:20:41.332Z,9.52
2017-10-27T11:21:41.665Z,9.56
2017-10-27T11:22:41.670Z,9.44
2017-10-27T11:23:41.664Z,9.44
2017-10-27T11:24:41.292Z,9.29
2017-10-27T11:25:41.638Z,9.34
2017-10-27T11:26:41.617Z,9.29
2017-10-27T11:27:41.259Z,9.34
2017-10-27T11:28:41.594Z,9.17
2017-10-27T11:29:41.239Z,9.21
2017-10-27T11:30:41.255Z,9.23
2017-10-27T11:31:41.574Z,9.3
2017-10-27T11:32:41.208Z,9.3
2017-10-27T11:33:41.219Z,9.3
2017-10-27T11:34:41.526Z,9.3
2017-10-27T11:35:41.860Z,9.3
2017-10-27T11:36:41.165Z,9.45
2017-10-27T11:37:41.162Z,9.5
2017-10-27T11:38:41.145Z,9.47
2017-10-27T11:39:41.135Z,9.37
2017-10-27T11:40:41.463Z,9.3
2017-10-27T11:41:41.119Z,9.34
2017-10-27T11:42:41.795Z,9.3
2017-10-27T11:43:41.776Z,9.3
2017-10-27T11:44:41.426Z,9.3
2017-10-27T11:45:41.414Z,9.34
2017-10-27T11:46:41.398Z,9.2
2017-10-27T11:47:41.416Z,9.32
2017-10-27T11:48:41.379Z,9.32
2017-10-27T11:49:41.373Z,9.42
2017-10-27T11:50:41.356Z,9.45
2017-10-27T11:51:41.026Z,9.52
2017-10-27T11:52:41.684Z,9.53
2017-10-27T11:53:41.334Z,9.56
2017-10-27T11:54:41.314Z,9.6
2017-10-27T11:55:41.524Z,9.56
2017-10-27T11:56:41.293Z,9.44
2017-10-27T11:57:40.959Z,9.52
2017-10-27T11:58:41.273Z,9.55
2017-10-27T11:59:41.283Z,9.45
2017-10-27T12:00:40.911Z,9.39
2017-10-27T12:01:41.260Z,9.34
2017-10-27T12:02:41.574Z,9.3
2017-10-27T12:03:41.234Z,9.42
2017-10-27T12:04:41.572Z,9.3
2017-10-27T12:05:41.200Z,9.26
2017-10-27T12:06:41.196Z,9.38
2017-10-27T12:07:40.840Z,9.3
2017-10-27T12:08:41.166Z,9.19
2017-10-27T12:09:40.813Z,9.19
2017-10-27T12:10:41.144Z,9.16
2017-10-27T12:11:40.797Z,9.12
2017-10-27T12:12:40.785Z,9.09
2017-10-27T12:13:40.786Z,9.09
2017-10-27T12:14:41.099Z,9.04
2017-10-27T12:15:41.104Z,9.04
2017-10-27T12:16:41.112Z,9.11
2017-10-27T12:17:40.732Z,9.19
2017-10-27T12:18:40.737Z,9.16
2017-10-27T12:19:41.051Z,9.26
2017-10-27T12:20:41.380Z,9.32
2017-10-27T12:21:40.688Z,9.42
2017-10-27T12:22:40.678Z,9.42
2017-10-27T12:23:40.667Z,9.45
2017-10-27T12:24:40.661Z,9.47
2017-10-27T12:25:41.009Z,9.48
2017-10-27T12:26:41.339Z,9.5
2017-10-27T12:27:41.314Z,9.45
2017-10-27T12:28:41.289Z,9.53
2017-10-27T12:29:40.607Z,9.3
2017-10-27T12:30:40.945Z,9.35
2017-10-27T12:31:40.584Z,9.23
2017-10-27T12:32:40.569Z,9.11
2017-10-27T12:33:40.897Z,9
2017-10-27T12:34:41.242Z,9.01
2017-10-27T12:35:40.534Z,9.01
2017-10-27T12:36:40.523Z,8.9
2017-10-27T12:37:40.514Z,8.89
2017-10-27T12:38:40.512Z,8.9
2017-10-27T12:39:40.844Z,8.85
2017-10-27T12:40:41.162Z,9
2017-10-27T12:41:40.814Z,9
2017-10-27T12:42:40.812Z,9.01
2017-10-27T12:43:40.791Z,9.03
2017-10-27T12:44:40.776Z,9.03
2017-10-27T12:45:40.430Z,9.04
2017-10-27T12:46:40.416Z,8.95
2017-10-27T12:47:40.770Z,9.01
2017-10-27T12:48:40.414Z,9
2017-10-27T12:49:40.384Z,8.97
2017-10-27T12:50:40.392Z,9
2017-10-27T12:51:40.372Z,9
2017-10-27T12:52:41.122Z,9
2017-10-27T12:53:40.690Z,9
2017-10-27T12:54:40.667Z,8.97
2017-10-27T12:55:40.997Z,9.01
2017-10-27T12:56:40.647Z,9.03
2017-10-27T12:57:40.298Z,8.98
2017-10-27T12:58:40.282Z,9.09
2017-10-27T12:59:40.618Z,9.08
2017-10-27T13:00:40.603Z,9.04
2017-10-27T13:01:40.248Z,8.97
2017-10-27T13:02:40.577Z,8.98
2017-10-27T13:03:40.578Z,8.98
2017-10-27T13:04:40.216Z,8.94
2017-10-27T13:05:40.212Z,8.94
2017-10-27T13:06:40.216Z,8.92
2017-10-27T13:07:40.544Z,8.82
2017-10-27T13:08:40.530Z,8.85
2017-10-27T13:09:40.841Z,8.76
2017-10-27T13:10:40.492Z,8.74
2017-10-27T13:11:40.149Z,8.61
2017-10-27T13:12:40.482Z,8.62
2017-10-27T13:13:40.813Z,8.49
2017-10-27T13:14:40.462Z,8.44
2017-10-27T13:15:40.774Z,8.35
2017-10-27T13:16:40.081Z,8.21
2017-10-27T13:17:40.408Z,8.13